sensor_id;sensor_type;location;lat;lon;timestamp;pressure;altitude;pressure_sealevel;temperature;humidity
19023;BME280;35226;48.606;8.858;2023-03-14T00:00:37;68970.22;;;-144.63;100.00
19023;BME280;35226;48.606;8.858;2023-03-14T00:03:03;68970.22;;;-144.63;100.00
19023;BME280;35226;48.606;8.858;2023-03-14T00:05:29;68970.22;;;-144.63;100.00
19023;BME280;35226;48.606;8.858;2023-03-14T00:07:54;68970.22;;;-144.63;100.00
19023;BME280;35226;48.606;8.858;2023-03-14T00:10:20;68970.22;;;-144.63;100.00
19023;BME280;35226;48.606;8.858;2023-03-14T00:12:48;68970.22;;;-144.63;100.00
19023;BME280;35226;48.606;8.858;2023-03-14T00:15:13;68970.22;;;-144.63;100.00
19023;BME280;35226;48.606;8.858;2023-03-14T00:17:39;68970.22;;;-144.63;100.00
19023;BME280;35226;48.606;8.858;2023-03-14T00:20:08;68970.22;;;-144.63;100.00
19023;BME280;35226;48.606;8.858;2023-03-14T00:22:35;68970.22;;;-144.63;100.00
19023;BME280;35226;48.606;8.858;2023-03-14T00:25:01;68970.22;;;-144.63;100.00
19023;BME280;35226;48.606;8.858;2023-03-14T00:27:27;68970.22;;;-144.63;100.00
19023;BME280;35226;48.606;8.858;2023-03-14T00:29:53;68970.22;;;-144.63;100.00
19023;BME280;35226;48.606;8.858;2023-03-14T00:32:18;68970.22;;;-144.63;100.00
19023;BME280;35226;48.606;8.858;2023-03-14T00:34:44;68970.22;;;-144.63;100.00
19023;BME280;35226;48.606;8.858;2023-03-14T00:37:09;68970.22;;;-144.63;100.00
19023;BME280;35226;48.606;8.858;2023-03-14T00:39:37;68970.22;;;-144.63;100.00
19023;BME280;35226;48.606;8.858;2023-03-14T00:42:03;68970.22;;;-144.63;100.00
19023;BME280;35226;48.606;8.858;2023-03-14T00:44:28;68970.22;;;-144.63;100.00
19023;BME280;35226;48.606;8.858;2023-03-14T00:46:54;68970.22;;;-144.63;100.00
19023;BME280;35226;48.606;8.858;2023-03-14T00:49:19;68970.22;;;-144.63;100.00
19023;BME280;35226;48.606;8.858;2023-03-14T00:51:45;68970.22;;;-144.63;100.00
19023;BME280;35226;48.606;8.858;2023-03-14T00:54:10;68970.22;;;-144.63;100.00
19023;BME280;35226;48.606;8.858;2023-03-14T00:56:36;68970.22;;;-144.63;100.00
19023;BME280;35226;48.606;8.858;2023-03-14T00:59:01;68970.22;;;-144.63;100.00
19023;BME280;35226;48.606;8.858;2023-03-14T01:01:27;68970.22;;;-144.63;100.00
19023;BME280;35226;48.606;8.858;2023-03-14T01:03:54;68970.22;;;-144.63;100.00
19023;BME280;35226;48.606;8.858;2023-03-14T01:06:22;68970.22;;;-144.63;100.00
19023;BME280;35226;48.606;8.858;2023-03-14T01:08:49;68970.22;;;-144.63;100.00
19023;BME280;35226;48.606;8.858;2023-03-14T01:11:17;68970.22;;;-144.63;100.00
19023;BME280;35226;48.606;8.858;2023-03-14T01:13:43;68970.22;;;-144.63;100.00
19023;BME280;35226;48.606;8.858;2023-03-14T01:16:11;68970.22;;;-144.63;100.00
19023;BME280;35226;48.606;8.858;2023-03-14T01:18:38;68970.22;;;-144.63;100.00
19023;BME280;35226;48.606;8.858;2023-03-14T01:21:14;68970.22;;;-144.63;100.00
19023;BME280;35226;48.606;8.858;2023-03-14T01:23:41;68970.22;;;-144.63;100.00
19023;BME280;35226;48.606;8.858;2023-03-14T01:26:14;68970.22;;;-144.63;100.00
19023;BME280;35226;48.606;8.858;2023-03-14T01:28:40;68970.22;;;-144.63;100.00
19023;BME280;35226;48.606;8.858;2023-03-14T01:31:08;68970.22;;;-144.63;100.00
19023;BME280;35226;48.606;8.858;2023-03-14T01:33:34;68970.22;;;-144.63;100.00
19023;BME280;35226;48.606;8.858;2023-03-14T01:35:59;68970.22;;;-144.63;100.00
19023;BME280;35226;48.606;8.858;2023-03-14T01:38:31;68970.22;;;-144.63;100.00
19023;BME280;35226;48.606;8.858;2023-03-14T01:40:58;68970.22;;;-144.63;100.00
19023;BME280;35226;48.606;8.858;2023-03-14T01:43:24;68970.22;;;-144.63;100.00
19023;BME280;35226;48.606;8.858;2023-03-14T01:48:38;68970.22;;;-144.63;100.00
19023;BME280;35226;48.606;8.858;2023-03-14T01:51:09;68970.22;;;-144.63;100.00
19023;BME280;35226;48.606;8.858;2023-03-14T01:53:38;68970.22;;;-144.63;100.00
19023;BME280;35226;48.606;8.858;2023-03-14T01:56:06;68970.22;;;-144.63;100.00
19023;BME280;35226;48.606;8.858;2023-03-14T01:58:32;68970.22;;;-144.63;100.00
19023;BME280;35226;48.606;8.858;2023-03-14T02:01:01;68970.22;;;-144.63;100.00
19023;BME280;35226;48.606;8.858;2023-03-14T02:03:29;68970.22;;;-144.63;100.00
19023;BME280;35226;48.606;8.858;2023-03-14T02:05:59;68970.22;;;-144.63;100.00
19023;BME280;35226;48.606;8.858;2023-03-14T02:08:29;68970.22;;;-144.63;100.00
19023;BME280;35226;48.606;8.858;2023-03-14T02:11:00;68970.22;;;-144.63;100.00
19023;BME280;35226;48.606;8.858;2023-03-14T02:13:43;68970.22;;;-144.63;100.00
19023;BME280;35226;48.606;8.858;2023-03-14T02:16:24;68970.22;;;-144.63;100.00
19023;BME280;35226;48.606;8.858;2023-03-14T02:19:14;68970.22;;;-144.63;100.00
19023;BME280;35226;48.606;8.858;2023-03-14T02:22:10;68970.22;;;-144.63;100.00
19023;BME280;35226;48.606;8.858;2023-03-14T02:27:42;68970.22;;;-144.63;100.00
19023;BME280;35226;48.606;8.858;2023-03-14T02:30:15;68970.22;;;-144.63;100.00
19023;BME280;35226;48.606;8.858;2023-03-14T02:32:49;68970.22;;;-144.63;100.00
19023;BME280;35226;48.606;8.858;2023-03-14T02:35:26;68970.22;;;-144.63;100.00
19023;BME280;35226;48.606;8.858;2023-03-14T02:37:57;68970.22;;;-144.63;100.00
19023;BME280;35226;48.606;8.858;2023-03-14T02:40:30;68970.22;;;-144.63;100.00
19023;BME280;35226;48.606;8.858;2023-03-14T02:42:56;68970.22;;;-144.63;100.00
19023;BME280;35226;48.606;8.858;2023-03-14T02:47:55;68970.22;;;-144.63;100.00
19023;BME280;35226;48.606;8.858;2023-03-14T02:50:26;68970.22;;;-144.63;100.00
19023;BME280;35226;48.606;8.858;2023-03-14T02:52:53;68970.22;;;-144.63;100.00
19023;BME280;35226;48.606;8.858;2023-03-14T02:55:23;68970.22;;;-144.63;100.00
19023;BME280;35226;48.606;8.858;2023-03-14T02:57:52;68970.22;;;-144.63;100.00
19023;BME280;35226;48.606;8.858;2023-03-14T03:00:19;68970.22;;;-144.63;100.00
19023;BME280;35226;48.606;8.858;2023-03-14T03:02:45;68970.22;;;-144.63;100.00
19023;BME280;35226;48.606;8.858;2023-03-14T03:05:13;68970.22;;;-144.63;100.00
19023;BME280;35226;48.606;8.858;2023-03-14T03:07:38;68970.22;;;-144.63;100.00
19023;BME280;35226;48.606;8.858;2023-03-14T03:10:04;68970.22;;;-144.63;100.00
19023;BME280;35226;48.606;8.858;2023-03-14T03:12:30;68970.22;;;-144.63;100.00
19023;BME280;35226;48.606;8.858;2023-03-14T03:14:56;68970.22;;;-144.63;100.00
19023;BME280;35226;48.606;8.858;2023-03-14T03:17:21;68970.22;;;-144.63;100.00
19023;BME280;35226;48.606;8.858;2023-03-14T03:19:47;68970.22;;;-144.63;100.00
19023;BME280;35226;48.606;8.858;2023-03-14T03:22:12;68970.22;;;-144.63;100.00
19023;BME280;35226;48.606;8.858;2023-03-14T03:24:40;68970.22;;;-144.63;100.00
19023;BME280;35226;48.606;8.858;2023-03-14T03:27:12;68970.22;;;-144.63;100.00
19023;BME280;35226;48.606;8.858;2023-03-14T03:29:37;68970.22;;;-144.63;100.00
19023;BME280;35226;48.606;8.858;2023-03-14T03:32:03;68970.22;;;-144.63;100.00
19023;BME280;35226;48.606;8.858;2023-03-14T03:34:29;68970.22;;;-144.63;100.00
19023;BME280;35226;48.606;8.858;2023-03-14T03:36:58;68970.22;;;-144.63;100.00
19023;BME280;35226;48.606;8.858;2023-03-14T03:39:26;68970.22;;;-144.63;100.00
19023;BME280;35226;48.606;8.858;2023-03-14T03:41:52;68970.22;;;-144.63;100.00
19023;BME280;35226;48.606;8.858;2023-03-14T03:44:18;68970.22;;;-144.63;100.00
19023;BME280;35226;48.606;8.858;2023-03-14T03:46:44;68970.22;;;-144.63;100.00
19023;BME280;35226;48.606;8.858;2023-03-14T03:49:09;68970.22;;;-144.63;100.00
19023;BME280;35226;48.606;8.858;2023-03-14T03:51:35;68970.22;;;-144.63;100.00
19023;BME280;35226;48.606;8.858;2023-03-14T03:54:00;68970.22;;;-144.63;100.00
19023;BME280;35226;48.606;8.858;2023-03-14T03:56:30;68970.22;;;-144.63;100.00
19023;BME280;35226;48.606;8.858;2023-03-14T03:58:56;68970.22;;;-144.63;100.00
19023;BME280;35226;48.606;8.858;2023-03-14T04:01:23;68970.22;;;-144.63;100.00
19023;BME280;35226;48.606;8.858;2023-03-14T04:03:51;68970.22;;;-144.63;100.00
19023;BME280;35226;48.606;8.858;2023-03-14T04:06:18;68970.22;;;-144.63;100.00
19023;BME280;35226;48.606;8.858;2023-03-14T04:08:45;68970.22;;;-144.63;100.00
19023;BME280;35226;48.606;8.858;2023-03-14T04:11:24;68970.22;;;-144.63;100.00
19023;BME280;35226;48.606;8.858;2023-03-14T04:14:13;68970.22;;;-144.63;100.00
19023;BME280;35226;48.606;8.858;2023-03-14T04:16:39;94512.84;;;7.12;100.00
19023;BME280;35226;48.606;8.858;2023-03-14T04:19:10;94509.19;;;7.15;100.00
19023;BME280;35226;48.606;8.858;2023-03-14T04:21:36;94505.03;;;7.19;100.00
19023;BME280;35226;48.606;8.858;2023-03-14T04:24:02;94504.91;;;7.14;100.00
19023;BME280;35226;48.606;8.858;2023-03-14T04:26:30;94505.72;;;7.05;100.00
19023;BME280;35226;48.606;8.858;2023-03-14T04:28:56;94503.38;;;7.13;100.00
19023;BME280;35226;48.606;8.858;2023-03-14T04:31:22;68970.22;;;-144.63;100.00
19023;BME280;35226;48.606;8.858;2023-03-14T04:33:49;68970.22;;;-144.63;100.00
19023;BME280;35226;48.606;8.858;2023-03-14T04:36:19;68970.22;;;-144.63;100.00
19023;BME280;35226;48.606;8.858;2023-03-14T04:38:45;68970.22;;;-144.63;100.00
19023;BME280;35226;48.606;8.858;2023-03-14T04:41:13;68970.22;;;-144.63;100.00
19023;BME280;35226;48.606;8.858;2023-03-14T04:43:39;68970.22;;;-144.63;100.00
19023;BME280;35226;48.606;8.858;2023-03-14T04:46:07;68970.22;;;-144.63;100.00
19023;BME280;35226;48.606;8.858;2023-03-14T04:48:34;68970.22;;;-144.63;100.00
19023;BME280;35226;48.606;8.858;2023-03-14T04:51:00;68970.22;;;-144.63;100.00
19023;BME280;35226;48.606;8.858;2023-03-14T04:53:30;68970.22;;;-144.63;100.00
19023;BME280;35226;48.606;8.858;2023-03-14T04:55:57;68970.22;;;-144.63;100.00
19023;BME280;35226;48.606;8.858;2023-03-14T04:58:26;68970.22;;;-144.63;100.00
19023;BME280;35226;48.606;8.858;2023-03-14T05:00:54;68970.22;;;-144.63;100.00
19023;BME280;35226;48.606;8.858;2023-03-14T05:03:57;68970.22;;;-144.63;100.00
19023;BME280;35226;48.606;8.858;2023-03-14T05:06:41;68970.22;;;-144.63;100.00
19023;BME280;35226;48.606;8.858;2023-03-14T05:09:27;68970.22;;;-144.63;100.00
19023;BME280;35226;48.606;8.858;2023-03-14T05:12:20;68970.22;;;-144.63;100.00
19023;BME280;35226;48.606;8.858;2023-03-14T05:15:09;94404.75;;;7.00;100.00
19023;BME280;35226;48.606;8.858;2023-03-14T05:17:58;94420.91;;;6.98;100.00
19023;BME280;35226;48.606;8.858;2023-03-14T05:20:35;94403.34;;;7.04;100.00
19023;BME280;35226;48.606;8.858;2023-03-14T05:23:21;94409.72;;;7.11;100.00
19023;BME280;35226;48.606;8.858;2023-03-14T05:26:00;94402.28;;;7.02;100.00
19023;BME280;35226;48.606;8.858;2023-03-14T05:28:48;68970.22;;;-144.63;100.00
19023;BME280;35226;48.606;8.858;2023-03-14T05:31:42;68970.22;;;-144.63;100.00
19023;BME280;35226;48.606;8.858;2023-03-14T05:34:24;68970.22;;;-144.63;100.00
19023;BME280;35226;48.606;8.858;2023-03-14T05:37:08;68970.22;;;-144.63;100.00
19023;BME280;35226;48.606;8.858;2023-03-14T05:39:56;94377.13;;;7.03;100.00
19023;BME280;35226;48.606;8.858;2023-03-14T05:42:38;68970.22;;;-144.63;100.00
19023;BME280;35226;48.606;8.858;2023-03-14T05:45:16;94376.41;;;7.18;100.00
19023;BME280;35226;48.606;8.858;2023-03-14T05:48:05;68970.22;;;-144.63;100.00
19023;BME280;35226;48.606;8.858;2023-03-14T05:50:44;94359.28;;;6.99;100.00
19023;BME280;35226;48.606;8.858;2023-03-14T05:53:24;94353.88;;;6.90;100.00
19023;BME280;35226;48.606;8.858;2023-03-14T05:56:13;94358.94;;;7.06;100.00
19023;BME280;35226;48.606;8.858;2023-03-14T05:58:59;94366.97;;;6.95;100.00
19023;BME280;35226;48.606;8.858;2023-03-14T06:01:41;68970.22;;;-144.63;100.00
19023;BME280;35226;48.606;8.858;2023-03-14T06:04:12;68970.22;;;-144.63;100.00
19023;BME280;35226;48.606;8.858;2023-03-14T06:06:39;94365.16;;;6.92;100.00
19023;BME280;35226;48.606;8.858;2023-03-14T06:09:06;94367.22;;;6.97;100.00
19023;BME280;35226;48.606;8.858;2023-03-14T06:11:36;94369.50;;;6.98;100.00
19023;BME280;35226;48.606;8.858;2023-03-14T06:14:03;94371.03;;;6.99;100.00
19023;BME280;35226;48.606;8.858;2023-03-14T06:16:29;94368.59;;;7.01;100.00
19023;BME280;35226;48.606;8.858;2023-03-14T06:18:54;94379.97;;;7.09;100.00
19023;BME280;35226;48.606;8.858;2023-03-14T06:21:22;94375.41;;;7.06;100.00
19023;BME280;35226;48.606;8.858;2023-03-14T06:23:48;94377.88;;;7.04;100.00
19023;BME280;35226;48.606;8.858;2023-03-14T06:26:13;94370.34;;;7.14;100.00
19023;BME280;35226;48.606;8.858;2023-03-14T06:28:39;94362.28;;;7.10;100.00
19023;BME280;35226;48.606;8.858;2023-03-14T06:31:05;94370.53;;;7.10;100.00
19023;BME280;35226;48.606;8.858;2023-03-14T06:33:38;94354.06;;;7.25;100.00
19023;BME280;35226;48.606;8.858;2023-03-14T06:36:06;94360.69;;;7.18;100.00
19023;BME280;35226;48.606;8.858;2023-03-14T06:38:33;94351.06;;;7.23;100.00
19023;BME280;35226;48.606;8.858;2023-03-14T06:41:07;94348.47;;;7.19;100.00
19023;BME280;35226;48.606;8.858;2023-03-14T06:43:44;94353.97;;;7.19;100.00
19023;BME280;35226;48.606;8.858;2023-03-14T06:46:11;94352.00;;;7.20;100.00
19023;BME280;35226;48.606;8.858;2023-03-14T06:48:39;94356.34;;;7.26;100.00
19023;BME280;35226;48.606;8.858;2023-03-14T06:51:06;94358.19;;;7.29;100.00
19023;BME280;35226;48.606;8.858;2023-03-14T06:53:31;94361.59;;;7.24;100.00
19023;BME280;35226;48.606;8.858;2023-03-14T06:56:01;94351.63;;;7.27;100.00
19023;BME280;35226;48.606;8.858;2023-03-14T06:58:29;94362.06;;;7.23;100.00
19023;BME280;35226;48.606;8.858;2023-03-14T07:00:54;94367.56;;;7.37;100.00
19023;BME280;35226;48.606;8.858;2023-03-14T07:03:24;94354.59;;;7.38;100.00
19023;BME280;35226;48.606;8.858;2023-03-14T07:05:53;94362.22;;;7.43;100.00
19023;BME280;35226;48.606;8.858;2023-03-14T07:08:18;94362.75;;;7.32;100.00
19023;BME280;35226;48.606;8.858;2023-03-14T07:10:44;94359.63;;;7.39;100.00
19023;BME280;35226;48.606;8.858;2023-03-14T07:13:10;94364.00;;;7.46;100.00
19023;BME280;35226;48.606;8.858;2023-03-14T07:15:46;94354.81;;;7.49;100.00
19023;BME280;35226;48.606;8.858;2023-03-14T07:18:12;94360.16;;;7.53;100.00
19023;BME280;35226;48.606;8.858;2023-03-14T07:20:38;94363.91;;;7.55;100.00
19023;BME280;35226;48.606;8.858;2023-03-14T07:23:05;94361.47;;;7.57;100.00
19023;BME280;35226;48.606;8.858;2023-03-14T07:25:38;94361.66;;;7.54;100.00
19023;BME280;35226;48.606;8.858;2023-03-14T07:28:04;94354.75;;;7.58;100.00
19023;BME280;35226;48.606;8.858;2023-03-14T07:30:30;94366.31;;;7.62;100.00
19023;BME280;35226;48.606;8.858;2023-03-14T07:32:58;94379.03;;;7.74;100.00
19023;BME280;35226;48.606;8.858;2023-03-14T07:35:24;94382.56;;;7.90;100.00
19023;BME280;35226;48.606;8.858;2023-03-14T07:37:49;94382.19;;;7.97;100.00
19023;BME280;35226;48.606;8.858;2023-03-14T07:40:18;94398.59;;;8.06;100.00
19023;BME280;35226;48.606;8.858;2023-03-14T07:42:44;94398.03;;;8.16;100.00
19023;BME280;35226;48.606;8.858;2023-03-14T07:45:14;94393.13;;;8.21;100.00
19023;BME280;35226;48.606;8.858;2023-03-14T07:47:40;94399.59;;;8.32;100.00
19023;BME280;35226;48.606;8.858;2023-03-14T07:50:06;94402.50;;;8.43;100.00
19023;BME280;35226;48.606;8.858;2023-03-14T07:52:31;94395.50;;;8.42;100.00
19023;BME280;35226;48.606;8.858;2023-03-14T07:54:59;94406.03;;;8.44;100.00
19023;BME280;35226;48.606;8.858;2023-03-14T07:57:25;94409.81;;;8.46;100.00
19023;BME280;35226;48.606;8.858;2023-03-14T07:59:51;94413.16;;;8.50;100.00
19023;BME280;35226;48.606;8.858;2023-03-14T08:02:16;94400.72;;;8.55;100.00
19023;BME280;35226;48.606;8.858;2023-03-14T08:04:43;94408.56;;;8.62;100.00
19023;BME280;35226;48.606;8.858;2023-03-14T08:07:08;94395.84;;;8.65;100.00
19023;BME280;35226;48.606;8.858;2023-03-14T08:09:34;94408.66;;;8.68;100.00
19023;BME280;35226;48.606;8.858;2023-03-14T08:11:59;94412.72;;;8.72;100.00
19023;BME280;35226;48.606;8.858;2023-03-14T08:14:25;94407.72;;;8.71;100.00
19023;BME280;35226;48.606;8.858;2023-03-14T08:16:51;94420.72;;;8.70;100.00
19023;BME280;35226;48.606;8.858;2023-03-14T08:19:17;94412.72;;;8.72;100.00
19023;BME280;35226;48.606;8.858;2023-03-14T08:21:43;94442.25;;;8.72;100.00
19023;BME280;35226;48.606;8.858;2023-03-14T08:24:09;94428.00;;;8.73;100.00
19023;BME280;35226;48.606;8.858;2023-03-14T08:26:34;94421.09;;;8.78;100.00
19023;BME280;35226;48.606;8.858;2023-03-14T08:29:00;94435.81;;;8.75;100.00
19023;BME280;35226;48.606;8.858;2023-03-14T08:31:26;94431.25;;;8.72;100.00
19023;BME280;35226;48.606;8.858;2023-03-14T08:33:52;94440.28;;;8.58;100.00
19023;BME280;35226;48.606;8.858;2023-03-14T08:36:19;94447.69;;;8.51;100.00
19023;BME280;35226;48.606;8.858;2023-03-14T08:38:45;94443.13;;;8.48;100.00
19023;BME280;35226;48.606;8.858;2023-03-14T08:41:11;94450.06;;;8.44;100.00
19023;BME280;35226;48.606;8.858;2023-03-14T08:43:36;94447.22;;;8.38;100.00
19023;BME280;35226;48.606;8.858;2023-03-14T08:46:02;94459.16;;;8.35;100.00
19023;BME280;35226;48.606;8.858;2023-03-14T08:48:28;94440.66;;;8.36;100.00
19023;BME280;35226;48.606;8.858;2023-03-14T08:51:08;94440.28;;;8.43;100.00
19023;BME280;35226;48.606;8.858;2023-03-14T08:53:36;94448.81;;;8.45;100.00
19023;BME280;35226;48.606;8.858;2023-03-14T08:56:02;94435.06;;;8.45;100.00
19023;BME280;35226;48.606;8.858;2023-03-14T08:58:28;94440.66;;;8.36;100.00
19023;BME280;35226;48.606;8.858;2023-03-14T09:00:55;94431.56;;;8.44;100.00
19023;BME280;35226;48.606;8.858;2023-03-14T09:03:20;94436.88;;;8.48;100.00
19023;BME280;35226;48.606;8.858;2023-03-14T09:05:49;94443.13;;;8.48;100.00
19023;BME280;35226;48.606;8.858;2023-03-14T09:08:14;94443.31;;;8.60;100.00
19023;BME280;35226;48.606;8.858;2023-03-14T09:10:40;94456.34;;;8.59;100.00
19023;BME280;35226;48.606;8.858;2023-03-14T09:13:05;94452.25;;;8.69;100.00
19023;BME280;35226;48.606;8.858;2023-03-14T09:15:31;94450.63;;;8.77;100.00
19023;BME280;35226;48.606;8.858;2023-03-14T09:17:57;94452.03;;;8.87;100.00
19023;BME280;35226;48.606;8.858;2023-03-14T09:20:23;94458.78;;;8.86;100.00
19023;BME280;35226;48.606;8.858;2023-03-14T09:22:49;94462.34;;;8.93;100.00
19023;BME280;35226;48.606;8.858;2023-03-14T09:25:14;94455.44;;;8.97;100.00
19023;BME280;35226;48.606;8.858;2023-03-14T09:27:40;94461.31;;;9.05;100.00
19023;BME280;35226;48.606;8.858;2023-03-14T09:30:06;94465.56;;;9.06;100.00
19023;BME280;35226;48.606;8.858;2023-03-14T09:32:32;94463.91;;;9.28;100.00
19023;BME280;35226;48.606;8.858;2023-03-14T09:34:58;94463.69;;;9.32;100.00
19023;BME280;35226;48.606;8.858;2023-03-14T09:37:27;94469.81;;;9.21;100.00
19023;BME280;35226;48.606;8.858;2023-03-14T09:39:52;94470.78;;;9.18;100.00
19023;BME280;35226;48.606;8.858;2023-03-14T09:42:21;94464.69;;;9.29;100.00
19023;BME280;35226;48.606;8.858;2023-03-14T09:44:53;94470.06;;;9.38;100.00
19023;BME280;35226;48.606;8.858;2023-03-14T09:47:20;94458.78;;;9.56;100.00
19023;BME280;35226;48.606;8.858;2023-03-14T09:49:48;94455.19;;;9.71;100.00
19023;BME280;35226;48.606;8.858;2023-03-14T09:52:33;94460.63;;;10.06;100.00
19023;BME280;35226;48.606;8.858;2023-03-14T09:55:06;94458.84;;;10.02;100.00
19023;BME280;35226;48.606;8.858;2023-03-14T09:57:36;94456.41;;;10.30;100.00
19023;BME280;35226;48.606;8.858;2023-03-14T10:00:06;94456.03;;;10.43;100.00
19023;BME280;35226;48.606;8.858;2023-03-14T10:02:41;94456.78;;;10.44;100.00
19023;BME280;35226;48.606;8.858;2023-03-14T10:05:18;94448.91;;;10.57;100.00
19023;BME280;35226;48.606;8.858;2023-03-14T10:07:45;94461.25;;;10.93;100.00
19023;BME280;35226;48.606;8.858;2023-03-14T10:10:14;94456.97;;;10.92;100.00
19023;BME280;35226;48.606;8.858;2023-03-14T10:12:41;94453.66;;;10.88;100.00
19023;BME280;35226;48.606;8.858;2023-03-14T10:15:10;94448.59;;;10.81;100.00
19023;BME280;35226;48.606;8.858;2023-03-14T10:17:41;94457.19;;;10.88;100.00
19023;BME280;35226;48.606;8.858;2023-03-14T10:20:14;94450.97;;;10.93;100.00
19023;BME280;35226;48.606;8.858;2023-03-14T10:22:53;94465.91;;;10.81;100.00
19023;BME280;35226;48.606;8.858;2023-03-14T10:25:28;94448.00;;;10.71;100.00
19023;BME280;35226;48.606;8.858;2023-03-14T10:27:58;94458.59;;;10.78;100.00
19023;BME280;35226;48.606;8.858;2023-03-14T10:33:36;94453.63;;;10.82;100.00
19023;BME280;35226;48.606;8.858;2023-03-14T10:38:33;94468.16;;;10.77;100.00
19023;BME280;35226;48.606;8.858;2023-03-14T10:41:00;94471.31;;;10.64;100.00
19023;BME280;35226;48.606;8.858;2023-03-14T10:43:31;94485.63;;;10.43;100.00
19023;BME280;35226;48.606;8.858;2023-03-14T10:46:16;94476.56;;;10.62;100.00
19023;BME280;35226;48.606;8.858;2023-03-14T10:49:05;94487.91;;;10.44;100.00
19023;BME280;35226;48.606;8.858;2023-03-14T10:51:31;94491.53;;;10.30;100.00
19023;BME280;35226;48.606;8.858;2023-03-14T10:54:00;94496.03;;;10.27;100.00
19023;BME280;35226;48.606;8.858;2023-03-14T10:56:27;94507.25;;;10.03;100.00
19023;BME280;35226;48.606;8.858;2023-03-14T10:58:58;94508.16;;;10.15;100.00
19023;BME280;35226;48.606;8.858;2023-03-14T11:11:56;94533.53;;;9.99;100.00
19023;BME280;35226;48.606;8.858;2023-03-14T11:14:32;94535.03;;;9.80;100.00
19023;BME280;35226;48.606;8.858;2023-03-14T11:17:05;94547.94;;;9.68;100.00
19023;BME280;35226;48.606;8.858;2023-03-14T11:19:46;94544.06;;;9.45;100.00
19023;BME280;35226;48.606;8.858;2023-03-14T11:22:24;94542.84;;;9.46;100.00
19023;BME280;35226;48.606;8.858;2023-03-14T11:27:35;94559.38;;;9.46;100.00
19023;BME280;35226;48.606;8.858;2023-03-14T11:30:30;94563.56;;;9.42;100.00
19023;BME280;35226;48.606;8.858;2023-03-14T11:33:18;94564.13;;;9.46;100.00
19023;BME280;35226;48.606;8.858;2023-03-14T11:35:53;94576.44;;;9.65;100.00
19023;BME280;35226;48.606;8.858;2023-03-14T11:38:49;94562.47;;;9.69;100.00
19023;BME280;35226;48.606;8.858;2023-03-14T11:41:23;94569.47;;;9.70;100.00
19023;BME280;35226;48.606;8.858;2023-03-14T11:43:55;94579.38;;;9.61;100.00
19023;BME280;35226;48.606;8.858;2023-03-14T11:46:23;94576.91;;;9.28;100.00
19023;BME280;35226;48.606;8.858;2023-03-14T11:51:36;94605.41;;;9.25;100.00
19023;BME280;35226;48.606;8.858;2023-03-14T11:57:12;94633.97;;;9.13;100.00
19023;BME280;35226;48.606;8.858;2023-03-14T11:59:50;94650.41;;;9.22;100.00
19023;BME280;35226;48.606;8.858;2023-03-14T12:05:46;94642.16;;;9.08;100.00
19023;BME280;35226;48.606;8.858;2023-03-14T12:08:58;94645.38;;;9.21;100.00
19023;BME280;35226;48.606;8.858;2023-03-14T12:11:31;94619.44;;;9.13;100.00
19023;BME280;35226;48.606;8.858;2023-03-14T12:14:00;94649.28;;;9.00;100.00
19023;BME280;35226;48.606;8.858;2023-03-14T12:16:32;94650.13;;;9.06;100.00
19023;BME280;35226;48.606;8.858;2023-03-14T12:19:14;94648.44;;;9.08;100.00
19023;BME280;35226;48.606;8.858;2023-03-14T12:21:51;94653.09;;;9.32;100.00
19023;BME280;35226;48.606;8.858;2023-03-14T12:24:19;94663.63;;;9.33;100.00
19023;BME280;35226;48.606;8.858;2023-03-14T12:27:09;94658.69;;;9.08;100.00
19023;BME280;35226;48.606;8.858;2023-03-14T12:29:58;94663.94;;;9.35;100.00
19023;BME280;35226;48.606;8.858;2023-03-14T12:32:24;94671.81;;;9.57;100.00
19023;BME280;35226;48.606;8.858;2023-03-14T12:34:50;94675.78;;;9.41;100.00
19023;BME280;35226;48.606;8.858;2023-03-14T12:37:41;94698.25;;;9.49;100.00
19023;BME280;35226;48.606;8.858;2023-03-14T12:40:15;94693.41;;;9.58;100.00
19023;BME280;35226;48.606;8.858;2023-03-14T12:43:00;94703.47;;;9.61;100.00
19023;BME280;35226;48.606;8.858;2023-03-14T12:45:34;94716.94;;;9.15;100.00
19023;BME280;35226;48.606;8.858;2023-03-14T12:48:20;94741.38;;;8.60;100.00
19023;BME280;35226;48.606;8.858;2023-03-14T12:51:02;94755.97;;;8.42;100.00
19023;BME280;35226;48.606;8.858;2023-03-14T12:56:17;94765.47;;;8.41;100.00
19023;BME280;35226;48.606;8.858;2023-03-14T13:01:34;94801.16;;;8.17;100.00
19023;BME280;35226;48.606;8.858;2023-03-14T13:04:11;94808.44;;;7.88;100.00
19023;BME280;35226;48.606;8.858;2023-03-14T13:13:10;94845.56;;;7.74;100.00
19023;BME280;35226;48.606;8.858;2023-03-14T13:15:35;94852.00;;;7.62;100.00
19023;BME280;35226;48.606;8.858;2023-03-14T13:18:12;94860.53;;;7.55;100.00
19023;BME280;35226;48.606;8.858;2023-03-14T13:20:56;94872.59;;;7.48;100.00
19023;BME280;35226;48.606;8.858;2023-03-14T13:23:29;94869.25;;;7.44;100.00
19023;BME280;35226;48.606;8.858;2023-03-14T13:25:55;94873.22;;;7.34;100.00
19023;BME280;35226;48.606;8.858;2023-03-14T13:28:21;94874.59;;;7.38;100.00
19023;BME280;35226;48.606;8.858;2023-03-14T13:30:49;94886.91;;;7.25;100.00
19023;BME280;35226;48.606;8.858;2023-03-14T13:33:17;94894.44;;;7.24;100.00
19023;BME280;35226;48.606;8.858;2023-03-14T13:35:48;94907.06;;;7.13;100.00
19023;BME280;35226;48.606;8.858;2023-03-14T13:38:23;94917.09;;;7.06;100.00
19023;BME280;35226;48.606;8.858;2023-03-14T13:40:50;94916.63;;;6.99;100.00
19023;BME280;35226;48.606;8.858;2023-03-14T13:43:30;94929.69;;;6.86;100.00
19023;BME280;35226;48.606;8.858;2023-03-14T13:46:03;94943.13;;;6.84;100.00
19023;BME280;35226;48.606;8.858;2023-03-14T13:48:32;94949.38;;;6.84;100.00
19023;BME280;35226;48.606;8.858;2023-03-14T13:51:06;94957.94;;;6.95;100.00
19023;BME280;35226;48.606;8.858;2023-03-14T13:53:41;94958.25;;;6.97;100.00